Time;durP1;ratioP1;P1;durP2;ratioP2;P2;SDS_P1;SDS_P2;PMS_P1;PMS_P2;Temp;Humidity;BMP_temperature;BMP_pressure;BME280_temperature;BME280_humidity;BME280_pressure;Samples;Min_cycle;Max_cycle;Signal;HPM_P1;HPM_P2
2022/05/25 00:21:30;;;;;;;1.30;0.50;;;;;;;13.57;100.00;98709.44;5131242;28;20044;-77
2022/05/25 00:23:58;;;;;;;0.88;0.70;;;;;;;13.47;100.00;98703.59;5130388;28;20054;-77
2022/05/25 00:26:25;;;;;;;1.27;0.60;;;;;;;13.30;100.00;98695.03;5143090;27;20057;-77
2022/05/25 00:28:52;;;;;;;3.08;0.95;;;;;;;13.30;100.00;98703.22;5148102;27;20046;-77
2022/05/25 00:31:18;;;;;;;1.23;0.60;;;;;;;13.28;100.00;98694.41;5152212;27;20047;-77
2022/05/25 00:33:44;;;;;;;3.53;0.68;;;;;;;13.11;100.00;98683.09;5155229;27;20363;-77
2022/05/25 00:36:11;;;;;;;3.05;0.73;;;;;;;13.32;100.00;98700.25;5155759;27;20445;-77
2022/05/25 00:38:38;;;;;;;3.22;1.88;;;;;;;13.21;100.00;98688.94;5155820;27;20046;-77
2022/05/25 00:41:06;;;;;;;2.65;0.77;;;;;;;13.12;100.00;98695.69;5152331;27;20097;-77
2022/05/25 00:43:32;;;;;;;1.42;0.60;;;;;;;13.15;100.00;98686.25;5139632;27;20042;-77
2022/05/25 00:46:05;;;;;;;1.95;0.50;;;;;;;13.21;100.00;98702.59;5155565;27;20043;-77
2022/05/25 00:48:36;;;;;;;2.85;0.70;;;;;;;13.22;100.00;98700.72;5155436;27;20049;-77
2022/05/25 00:51:15;;;;;;;1.83;0.75;;;;;;;13.16;100.00;98710.59;5154853;27;20419;-77
2022/05/25 00:53:45;;;;;;;3.97;0.70;;;;;;;13.28;100.00;98705.31;5154545;27;20047;-77
2022/05/25 01:36:43;;;;;;;2.67;0.80;;;;;;;12.81;100.00;98735.41;5126083;27;20101;-77
2022/05/25 01:39:14;;;;;;;3.65;1.25;;;;;;;12.73;100.00;98724.69;5107423;28;20059;-77
2022/05/25 01:42:01;;;;;;;2.47;0.88;;;;;;;12.73;100.00;98735.59;5113230;28;20044;-77
2022/05/25 01:44:38;;;;;;;3.55;1.20;;;;;;;12.71;100.00;98741.25;5111766;28;20059;-77
2022/05/25 01:47:09;;;;;;;0.63;0.63;;;;;;;12.65;100.00;98746.72;5113096;28;20403;-77
2022/05/25 01:49:42;;;;;;;3.08;1.02;;;;;;;12.64;100.00;98745.03;5112491;28;20082;-77
2022/05/25 01:52:15;;;;;;;7.20;0.80;;;;;;;12.51;100.00;98716.72;5112315;28;20047;-77
2022/05/25 01:54:50;;;;;;;0.73;0.70;;;;;;;12.62;100.00;98739.78;5112856;28;20479;-77
2022/05/25 01:57:18;;;;;;;1.70;0.88;;;;;;;12.61;100.00;98723.63;5112790;28;20048;-76
2022/05/25 01:59:45;;;;;;;1.30;0.75;;;;;;;12.58;100.00;98722.16;5113248;28;20395;-77
2022/05/25 02:05:11;;;;;;;1.75;0.70;;;;;;;12.68;100.00;98759.94;5041042;28;20067;-77
2022/05/25 02:07:54;;;;;;;2.15;0.88;;;;;;;12.70;100.00;98760.56;5098814;28;20411;-77
2022/05/25 02:10:26;;;;;;;4.25;0.90;;;;;;;12.65;100.00;98755.72;5112464;28;20054;-77
2022/05/25 02:13:12;;;;;;;2.08;0.70;;;;;;;12.38;100.00;98733.88;5112133;28;20058;-77
2022/05/25 02:15:45;;;;;;;4.78;1.23;;;;;;;12.52;100.00;98755.72;5112743;28;20047;-77
2022/05/25 02:18:19;;;;;;;2.15;0.85;;;;;;;12.39;100.00;98741.03;5111065;27;20052;-77
2022/05/25 02:20:52;;;;;;;1.92;1.00;;;;;;;12.46;100.00;98748.38;5105064;28;20048;-77
2022/05/25 02:23:29;;;;;;;4.72;0.90;;;;;;;12.31;100.00;98727.56;5091073;28;20051;-77
2022/05/25 02:26:02;;;;;;;1.45;0.70;;;;;;;12.46;100.00;98742.91;5091831;28;20052;-77
2022/05/25 02:28:33;;;;;;;3.15;0.73;;;;;;;12.48;100.00;98751.72;5099317;28;20062;-77
2022/05/25 02:31:03;;;;;;;1.45;0.80;;;;;;;12.46;100.00;98745.63;5112507;28;20127;-77
2022/05/25 02:33:35;;;;;;;3.40;0.90;;;;;;;12.53;100.00;98750.06;5110966;28;20047;-77
2022/05/25 02:36:02;;;;;;;6.20;1.00;;;;;;;12.45;100.00;98741.22;5102225;28;20499;-77
2022/05/25 02:38:30;;;;;;;3.38;0.65;;;;;;;12.36;100.00;98757.78;5139371;27;20053;-78
2022/05/25 02:41:05;;;;;;;4.28;1.00;;;;;;;12.29;100.00;98746.03;5153391;27;20050;-78
2022/05/25 02:43:31;;;;;;;2.25;0.98;;;;;;;12.20;100.00;98769.06;5152390;27;20039;-77
2022/05/25 02:45:58;;;;;;;2.28;0.75;;;;;;;12.03;100.00;98738.63;5153326;27;20057;-77
2022/05/25 02:48:25;;;;;;;1.80;0.80;;;;;;;12.04;100.00;98757.50;5152943;27;20047;-77
2022/05/25 02:50:51;;;;;;;6.10;0.90;;;;;;;12.07;100.00;98742.59;5152192;27;20096;-78
2022/05/25 02:53:20;;;;;;;3.38;1.00;;;;;;;12.28;100.00;98768.03;5151789;27;20129;-78
2022/05/25 02:55:47;;;;;;;4.80;0.80;;;;;;;12.32;100.00;98761.97;5152664;27;20501;-77
2022/05/25 02:58:14;;;;;;;4.00;0.80;;;;;;;12.37;100.00;98775.84;5152716;27;20481;-78
2022/05/25 03:00:40;;;;;;;6.22;1.08;;;;;;;12.25;100.00;98768.44;5153151;27;20418;-77
2022/05/25 03:03:07;;;;;;;1.40;0.77;;;;;;;12.23;100.00;98782.28;5152031;27;20058;-77
2022/05/25 03:05:33;;;;;;;4.50;1.00;;;;;;;12.14;100.00;98783.50;5152878;27;20579;-77
2022/05/25 03:08:00;;;;;;;4.90;1.10;;;;;;;12.08;100.00;98779.72;5150082;27;20405;-77
2022/05/25 03:10:26;;;;;;;2.95;0.88;;;;;;;12.13;100.00;98785.38;5140201;27;20050;-77
2022/05/25 03:12:54;;;;;;;11.43;2.50;;;;;;;12.06;100.00;98768.19;5131230;27;20498;-78
2022/05/25 03:15:21;;;;;;;4.20;0.90;;;;;;;11.89;100.00;98754.03;5131915;27;20050;-77
2022/05/25 03:17:48;;;;;;;2.15;1.10;;;;;;;12.11;100.00;98773.03;5132402;27;20051;-77
2022/05/25 03:20:16;;;;;;;1.23;1.05;;;;;;;12.16;100.00;98793.19;5152333;27;20050;-77
2022/05/25 03:22:44;;;;;;;2.40;0.80;;;;;;;12.16;100.00;98795.03;5151775;27;20050;-77
2022/05/25 03:25:11;;;;;;;1.20;0.90;;;;;;;12.20;100.00;98797.16;5151067;27;20047;-77
2022/05/25 03:27:37;;;;;;;2.10;1.00;;;;;;;12.17;100.00;98794.00;5152534;27;20046;-77
2022/05/25 03:30:08;;;;;;;1.48;1.00;;;;;;;11.93;100.00;98779.03;5151779;27;20043;-77
2022/05/25 03:32:35;;;;;;;5.25;1.10;;;;;;;12.02;100.00;98783.25;5150856;27;20047;-77
2022/05/25 03:35:02;;;;;;;1.38;0.75;;;;;;;12.03;100.00;98802.13;5152498;27;20053;-77
2022/05/25 03:37:29;;;;;;;1.23;1.08;;;;;;;12.06;100.00;98802.75;5152231;27;20406;-77
2022/05/25 03:39:55;;;;;;;2.90;0.93;;;;;;;11.99;100.00;98800.00;5142051;27;20046;-77
2022/05/25 03:42:23;;;;;;;3.35;1.10;;;;;;;11.96;100.00;98790.34;5138479;27;20047;-77
2022/05/25 03:44:50;;;;;;;0.60;0.60;;;;;;;11.91;100.00;98787.38;5131379;27;20051;-77
2022/05/25 03:47:18;;;;;;;2.03;1.20;;;;;;;11.94;100.00;98792.44;5131662;27;20100;-77
2022/05/25 03:49:46;;;;;;;1.73;1.00;;;;;;;12.06;100.00;98811.78;5148410;27;20047;-78
2022/05/25 03:52:13;;;;;;;5.95;1.10;;;;;;;11.96;100.00;98801.25;5151353;27;20573;-77
2022/05/25 03:54:39;;;;;;;1.88;0.88;;;;;;;12.12;100.00;98834.63;5151461;27;20129;-77
2022/05/25 03:57:06;;;;;;;5.00;1.30;;;;;;;11.99;100.00;98814.47;5151798;27;20051;-77
2022/05/25 03:59:33;;;;;;;1.52;0.80;;;;;;;12.04;100.00;98839.22;5151509;27;20047;-77
2022/05/25 04:01:59;;;;;;;3.13;1.00;;;;;;;11.81;100.00;98816.88;5151877;27;20512;-77
2022/05/25 04:04:27;;;;;;;1.30;0.90;;;;;;;11.75;100.00;98823.13;5151546;27;20050;-77
2022/05/25 04:06:54;;;;;;;2.58;0.80;;;;;;;11.89;100.00;98838.47;5156082;27;20054;-77
2022/05/25 04:09:20;;;;;;;1.33;0.95;;;;;;;11.87;100.00;98825.06;5155687;27;20082;-77
2022/05/25 04:11:47;;;;;;;1.27;1.00;;;;;;;11.86;100.00;98817.94;5147185;27;20050;-77
2022/05/25 04:14:15;;;;;;;0.90;0.90;;;;;;;11.90;100.00;98829.25;5142897;27;20090;-77
2022/05/25 04:16:42;;;;;;;1.90;1.00;;;;;;;12.02;100.00;98843.19;5135591;27;20478;-77
2022/05/25 04:19:08;;;;;;;1.10;0.88;;;;;;;11.78;100.00;98815.38;5146299;27;20058;-77
2022/05/25 04:21:36;;;;;;;3.42;1.02;;;;;;;12.04;100.00;98846.53;5156076;27;20051;-77
2022/05/25 04:24:03;;;;;;;4.57;0.82;;;;;;;12.00;100.00;98848.84;5155250;27;20042;-77
2022/05/25 04:26:30;;;;;;;3.67;0.80;;;;;;;11.85;100.00;98821.69;5155887;27;20520;-77
2022/05/25 04:28:56;;;;;;;2.72;0.85;;;;;;;11.93;100.00;98860.75;5152831;27;20043;-77
2022/05/25 04:31:23;;;;;;;1.40;0.90;;;;;;;11.89;100.00;98862.16;5135057;27;20051;-77
2022/05/25 04:33:50;;;;;;;3.08;1.08;;;;;;;12.10;100.00;98872.97;5134346;27;20062;-77
2022/05/25 04:36:16;;;;;;;1.08;0.82;;;;;;;12.13;100.00;98863.56;5134812;27;20103;-77
2022/05/25 04:38:44;;;;;;;4.90;1.10;;;;;;;12.23;100.00;98861.31;5141815;27;20484;-77
2022/05/25 04:41:11;;;;;;;1.67;0.80;;;;;;;12.03;100.00;98845.72;5155603;27;20050;-77
2022/05/25 04:43:38;;;;;;;0.77;0.73;;;;;;;12.15;100.00;98853.28;5153120;27;20066;-77
2022/05/25 04:46:11;;;;;;;2.70;0.88;;;;;;;12.38;100.00;98897.44;5128487;27;20039;-77
2022/05/25 04:48:39;;;;;;;4.45;0.80;;;;;;;12.32;100.00;98890.06;5155306;27;20046;-77
2022/05/25 04:51:06;;;;;;;3.03;0.80;;;;;;;12.14;100.00;98876.16;5134933;27;20078;-77
2022/05/25 04:53:36;;;;;;;1.30;1.05;;;;;;;12.30;100.00;98897.63;5135518;27;20066;-77
2022/05/25 05:15:41;;;;;;;1.88;0.80;;;;;;;12.63;100.00;98935.09;5142609;27;20045;-76
2022/05/25 05:18:08;;;;;;;3.83;0.95;;;;;;;12.74;100.00;98942.69;5148651;27;20050;-76
2022/05/25 05:20:35;;;;;;;1.45;0.80;;;;;;;12.75;100.00;98911.63;5145389;27;20050;-76
2022/05/25 05:23:02;;;;;;;3.83;1.02;;;;;;;13.01;100.00;98931.00;5150023;27;20478;-76
2022/05/25 05:25:28;;;;;;;7.20;1.00;;;;;;;13.16;100.00;98925.34;5148429;27;20047;-77
2022/05/25 05:27:55;;;;;;;1.30;0.85;;;;;;;13.88;100.00;98940.13;5147200;27;20046;-76
2022/05/25 05:30:23;;;;;;;4.38;0.90;;;;;;;14.31;100.00;98925.94;5149740;27;20073;-76
2022/05/25 05:32:51;;;;;;;4.47;1.27;;;;;;;14.48;100.00;98920.84;5148911;27;20052;-76
2022/05/25 05:35:17;;;;;;;3.72;0.90;;;;;;;14.29;100.00;98919.03;5139329;27;20046;-76
2022/05/25 05:37:49;;;;;;;1.65;0.82;;;;;;;14.19;100.00;98932.28;5145018;27;20516;-76
2022/05/25 05:40:17;;;;;;;2.95;0.88;;;;;;;14.48;100.00;98940.00;5145830;27;20054;-76
2022/05/25 05:42:45;;;;;;;7.15;1.02;;;;;;;14.79;100.00;98938.41;5151778;27;20047;-76
2022/05/25 05:45:16;;;;;;;1.17;0.80;;;;;;;15.32;97.92;98920.81;5136171;27;20051;-76
2022/05/25 05:47:47;;;;;;;3.15;0.90;;;;;;;15.87;93.89;98942.13;5135819;27;20051;-76
2022/05/25 05:50:15;;;;;;;0.93;0.88;;;;;;;15.83;91.86;98962.81;5142163;27;20039;-76
2022/05/25 05:52:41;;;;;;;0.88;0.73;;;;;;;15.32;91.74;98961.06;5140333;27;20661;-76
2022/05/25 05:55:09;;;;;;;2.13;1.00;;;;;;;14.97;92.50;98945.91;5148004;27;20142;-76
2022/05/25 05:57:38;;;;;;;1.38;1.00;;;;;;;14.69;95.18;98948.97;5146528;27;20634;-76
2022/05/25 06:00:07;;;;;;;1.83;1.05;;;;;;;14.59;96.01;98945.81;5145308;27;20042;-76
2022/05/25 06:36:14;;;;;;;4.15;0.70;;;;;;;16.54;69.77;99011.94;5131490;27;20065;-78
2022/05/25 06:38:41;;;;;;;5.20;0.88;;;;;;;16.15;70.51;99027.72;5098521;28;20475;-77
2022/05/25 06:41:07;;;;;;;1.30;1.00;;;;;;;16.06;73.64;98994.25;5100786;28;20482;-77
2022/05/25 06:43:34;;;;;;;2.65;0.70;;;;;;;16.75;71.24;98985.94;5104020;28;20492;-77
2022/05/25 06:46:01;;;;;;;0.40;0.40;;;;;;;17.52;67.64;99015.56;5109388;28;20062;-78
2022/05/25 06:48:27;;;;;;;4.10;0.90;;;;;;;18.02;64.53;98998.75;5110196;28;20052;-78
2022/05/25 06:50:54;;;;;;;2.90;1.60;;;;;;;18.44;61.55;99011.56;5111596;28;20589;-77
2022/05/25 06:53:22;;;;;;;1.23;0.75;;;;;;;18.44;62.15;99007.97;5110983;28;20059;-77
2022/05/25 06:55:48;;;;;;;2.85;0.82;;;;;;;17.99;63.89;99001.13;5110583;28;20522;-77
2022/05/25 06:58:15;;;;;;;3.65;0.90;;;;;;;17.52;66.65;99015.56;5099876;28;20048;-78
2022/05/25 07:00:42;;;;;;;2.97;0.90;;;;;;;17.47;69.36;99018.19;5101467;28;20039;-77
2022/05/25 07:03:09;;;;;;;2.15;0.80;;;;;;;17.34;66.09;99025.56;5106455;28;20059;-78
2022/05/25 07:05:35;;;;;;;4.32;1.00;;;;;;;17.27;68.58;99034.97;5099089;28;20042;-76
2022/05/25 07:08:02;;;;;;;6.18;0.90;;;;;;;16.88;71.08;99046.22;5104439;28;20039;-76
2022/05/25 07:10:30;;;;;;;0.63;0.63;;;;;;;16.60;71.60;99030.22;5108600;28;20047;-77
2022/05/25 07:12:57;;;;;;;3.60;1.00;;;;;;;16.53;71.17;99045.91;5109204;28;20487;-76
2022/05/25 07:15:23;;;;;;;2.28;0.85;;;;;;;16.22;70.89;99028.50;5109761;28;20085;-77
2022/05/25 07:17:50;;;;;;;1.83;0.98;;;;;;;16.14;75.50;99021.41;5098969;28;20051;-77
2022/05/25 07:20:16;;;;;;;2.00;0.70;;;;;;;16.50;74.60;99039.00;5098668;28;20048;-76
2022/05/25 07:22:43;;;;;;;2.17;0.95;;;;;;;16.48;72.61;99029.31;5107774;28;20878;-76
2022/05/25 07:25:10;;;;;;;2.75;0.98;;;;;;;16.75;74.56;99029.84;5107739;28;20055;-77
2022/05/25 07:27:39;;;;;;;4.03;0.88;;;;;;;17.57;70.77;99050.59;5091229;28;20052;-77
2022/05/25 07:30:07;;;;;;;2.22;0.82;;;;;;;18.08;63.77;99032.72;5090822;28;20117;-78
2022/05/25 07:32:34;;;;;;;2.20;1.00;;;;;;;18.66;63.06;99035.72;5097565;28;20047;-77
2022/05/25 07:35:04;;;;;;;1.25;0.70;;;;;;;18.77;62.21;99051.38;5110845;28;20048;-77
2022/05/25 07:37:38;;;;;;;2.60;1.20;;;;;;;18.75;63.96;99037.00;5123481;27;20051;-78
2022/05/25 07:40:09;;;;;;;2.03;0.80;;;;;;;18.50;60.67;99035.38;5142435;27;20478;-78
2022/05/25 07:42:38;;;;;;;2.67;1.25;;;;;;;18.99;56.52;99059.06;5151905;27;20061;-78
2022/05/25 07:45:06;;;;;;;3.40;0.90;;;;;;;19.19;56.06;99067.72;5148996;27;20042;-77
2022/05/25 07:47:34;;;;;;;2.75;1.20;;;;;;;19.09;56.42;99059.28;5134061;27;20562;-78
2022/05/25 07:50:01;;;;;;;3.50;0.93;;;;;;;18.83;59.29;99055.91;5131382;27;20059;-76
2022/05/25 07:52:31;;;;;;;5.32;0.80;;;;;;;19.26;58.09;99037.28;5130870;27;20069;-77
2022/05/25 07:54:58;;;;;;;4.10;1.00;;;;;;;19.57;58.30;99035.97;5149271;27;20043;-77
2022/05/25 07:57:26;;;;;;;4.07;0.80;;;;;;;19.77;58.30;99027.25;5149697;27;20066;-77
2022/05/25 07:59:54;;;;;;;3.13;1.30;;;;;;;19.58;56.03;99050.59;5134370;27;20047;-77
2022/05/25 08:07:54;;;;;;;1.77;0.70;;;;;;;19.89;54.19;99060.28;5143004;27;20106;-77
2022/05/25 08:10:25;;;;;;;1.48;0.80;;;;;;;20.06;58.72;99045.69;5149361;27;20050;-77
2022/05/25 08:12:55;;;;;;;3.05;0.90;;;;;;;19.84;54.60;99031.78;5135722;27;20408;-78
2022/05/25 08:15:23;;;;;;;;;;;;;;;19.99;55.85;99054.09;5144455;27;20553;-78
2022/05/25 08:17:52;;;;;;;3.15;1.08;;;;;;;20.23;57.04;99037.41;5151449;27;20369;-78
2022/05/25 08:20:20;;;;;;;3.20;0.60;;;;;;;20.59;54.89;99044.28;5150322;27;20121;-78
2022/05/25 08:22:47;;;;;;;7.25;0.65;;;;;;;20.07;52.17;99056.47;5151445;27;20387;-77
2022/05/25 08:25:15;;;;;;;5.20;0.60;;;;;;;19.76;50.90;99047.59;5150493;27;20129;-79
2022/05/25 08:27:42;;;;;;;1.17;0.50;;;;;;;19.63;50.70;99036.88;5135902;27;20043;-79
2022/05/25 08:30:11;;;;;;;1.27;0.65;;;;;;;20.02;50.00;99050.84;5150658;27;20508;-79
2022/05/25 08:32:39;;;;;;;3.90;0.82;;;;;;;19.53;47.83;99036.72;5149916;27;21265;-79
2022/05/25 08:35:07;;;;;;;0.60;0.43;;;;;;;19.89;48.17;99023.59;5140450;27;20147;-79
2022/05/25 08:37:34;;;;;;;1.95;0.70;;;;;;;19.54;49.33;99028.19;5131250;28;20055;-79
2022/05/25 08:40:01;;;;;;;2.60;0.75;;;;;;;19.92;46.73;99036.91;5131032;28;20047;-77
2022/05/25 08:42:31;;;;;;;0.40;0.40;;;;;;;20.11;47.28;99032.81;5133736;27;20043;-79
2022/05/25 08:45:00;;;;;;;1.85;0.60;;;;;;;19.92;47.25;99047.94;5130892;27;20051;-78
2022/05/25 08:47:26;;;;;;;4.65;0.90;;;;;;;20.33;46.67;99035.63;5151536;27;20047;-78
2022/05/25 08:49:56;;;;;;;6.43;0.82;;;;;;;20.74;45.03;99035.44;5151537;27;20046;-78
2022/05/25 08:52:31;;;;;;;1.50;0.57;;;;;;;20.76;45.91;99041.56;5150453;27;20957;-78
2022/05/25 08:54:59;;;;;;;0.45;0.40;;;;;;;20.44;46.96;99055.13;5153664;27;20077;-78
2022/05/25 08:57:31;;;;;;;2.55;0.60;;;;;;;20.03;44.77;99035.16;5154482;27;20581;-78
2022/05/25 09:00:03;;;;;;;3.65;0.80;;;;;;;20.14;46.43;99043.34;5137702;27;20047;-78
2022/05/25 09:02:35;;;;;;;2.55;0.88;;;;;;;19.85;45.73;99036.22;5152200;27;20562;-77
2022/05/25 09:05:10;;;;;;;0.73;0.50;;;;;;;20.45;44.05;99051.28;5153740;27;20050;-78
2022/05/25 09:07:43;;;;;;;2.30;0.82;;;;;;;19.90;48.15;99034.38;5155353;27;20050;-79
2022/05/25 09:10:12;;;;;;;3.40;0.50;;;;;;;19.98;47.92;99053.28;5155297;27;20086;-78
2022/05/25 09:12:42;;;;;;;1.10;0.60;;;;;;;19.58;44.75;99048.66;5145167;27;20050;-78
2022/05/25 09:15:13;;;;;;;4.82;0.40;;;;;;;19.67;45.14;99049.09;5142263;27;20053;-78
2022/05/25 09:17:45;;;;;;;3.40;0.35;;;;;;;19.93;46.42;99053.19;5132723;27;20484;-78
2022/05/25 09:20:17;;;;;;;2.70;0.50;;;;;;;19.46;47.27;99050.63;5146806;27;20497;-79
2022/05/25 09:22:44;;;;;;;1.83;0.60;;;;;;;19.16;45.19;99039.84;5141239;27;20051;-78
2022/05/25 09:25:14;;;;;;;1.35;0.70;;;;;;;19.58;47.93;99054.16;5135393;27;20051;-78
2022/05/25 09:27:43;;;;;;;1.33;0.80;;;;;;;19.06;45.42;99027.53;5149584;27;20042;-78
2022/05/25 09:30:12;;;;;;;6.00;0.90;;;;;;;19.48;47.46;99059.50;5135802;27;20494;-78
2022/05/25 09:32:47;;;;;;;1.38;0.60;;;;;;;19.85;45.66;99045.31;5133381;27;20392;-78
2022/05/25 09:35:19;;;;;;;2.70;0.60;;;;;;;19.83;45.38;99064.03;5134117;27;20053;-78
2022/05/25 09:37:52;;;;;;;1.55;0.50;;;;;;;20.13;45.69;99040.84;5141299;27;20054;-75
2022/05/25 09:40:24;;;;;;;0.82;0.45;;;;;;;20.44;43.84;99057.88;5142566;27;20051;-76
2022/05/25 09:42:52;;;;;;;3.55;0.80;;;;;;;20.73;45.03;99061.41;5147664;27;20061;-77
2022/05/25 09:45:20;;;;;;;4.00;0.55;;;;;;;20.26;42.70;99043.22;5154786;27;20043;-78
2022/05/25 09:47:49;;;;;;;2.28;0.50;;;;;;;20.84;42.68;99065.13;5153210;27;20039;-77
2022/05/25 09:50:29;;;;;;;2.42;0.60;;;;;;;20.91;40.99;99054.75;5133751;27;20472;-77
2022/05/25 09:52:57;;;;;;;0.60;0.32;;;;;;;21.18;41.02;99059.50;5133252;27;20451;-77
2022/05/25 09:55:26;;;;;;;2.47;0.45;;;;;;;20.99;39.99;99070.88;5134083;27;20066;-78
2022/05/25 09:57:58;;;;;;;0.90;0.30;;;;;;;21.09;39.82;99075.72;5150922;27;20145;-77
2022/05/25 10:00:41;;;;;;;0.82;0.40;;;;;;;20.63;38.06;99056.50;5154620;27;20047;-77
2022/05/25 10:03:11;;;;;;;1.35;0.40;;;;;;;20.64;38.84;99049.06;5149984;27;20072;-77
2022/05/25 10:05:52;;;;;;;0.52;0.35;;;;;;;21.07;38.44;99066.81;5147543;27;20044;-77
2022/05/25 10:08:27;;;;;;;3.40;0.50;;;;;;;20.98;39.02;99073.88;5133678;27;20440;-78
2022/05/25 10:10:56;;;;;;;0.75;0.35;;;;;;;20.67;37.42;99056.88;5138259;27;20046;-77
2022/05/25 10:13:26;;;;;;;1.50;0.50;;;;;;;20.79;38.63;99065.91;5142543;27;20043;-77
2022/05/25 10:15:53;;;;;;;0.38;0.38;;;;;;;20.94;37.77;99062.53;5132967;27;20387;-77
2022/05/25 10:18:35;;;;;;;0.70;0.40;;;;;;;21.27;38.29;99030.28;5132244;27;20044;-77
2022/05/25 10:21:05;;;;;;;1.60;0.55;;;;;;;21.05;39.36;99044.16;5133296;27;20066;-76
2022/05/25 10:23:32;;;;;;;2.08;0.38;;;;;;;21.36;36.30;99045.34;5132317;27;20055;-77
2022/05/25 10:26:08;;;;;;;3.60;0.50;;;;;;;21.24;37.70;99061.22;5136302;27;20041;-76
2022/05/25 10:28:37;;;;;;;1.60;0.50;;;;;;;21.09;36.59;99041.69;5141282;27;20043;-77
2022/05/25 10:36:56;;;;;;;2.05;0.50;;;;;;;21.33;34.86;99054.16;5132731;27;20058;-76
2022/05/25 10:39:35;;;;;;;3.50;0.63;;;;;;;21.51;35.54;99064.09;5132843;27;20043;-76
2022/05/25 10:42:05;;;;;;;4.93;0.63;;;;;;;21.26;35.89;99049.91;5147963;27;20055;-77
2022/05/25 10:44:39;;;;;;;0.70;0.28;;;;;;;21.70;36.47;99061.78;5152102;27;20419;-77
2022/05/25 10:47:18;;;;;;;1.65;0.47;;;;;;;21.82;35.50;99061.63;5152835;27;20055;-77
2022/05/25 10:49:44;;;;;;;1.42;0.50;;;;;;;22.02;37.21;99057.38;5150760;27;20034;-78
2022/05/25 10:52:22;;;;;;;6.00;0.70;;;;;;;21.78;33.66;99054.13;5141674;27;20051;-78
2022/05/25 10:54:52;;;;;;;2.63;0.57;;;;;;;21.51;34.73;99033.66;5147743;27;20058;-77
2022/05/25 10:57:41;;;;;;;0.75;0.40;;;;;;;21.89;36.20;99050.38;5153017;27;20047;-77
2022/05/25 11:00:12;;;;;;;1.10;0.60;;;;;;;22.36;36.14;99057.16;5152834;27;20093;-77
2022/05/25 11:03:00;;;;;;;0.90;0.40;;;;;;;22.19;33.93;99048.94;5152052;27;20508;-78
2022/05/25 11:05:36;;;;;;;0.35;0.30;;;;;;;22.24;35.91;99055.38;5142023;27;20409;-77
2022/05/25 11:08:16;;;;;;;0.95;0.55;;;;;;;21.88;35.24;99054.22;5153226;27;20055;-78
2022/05/25 11:10:51;;;;;;;1.13;0.40;;;;;;;22.35;34.27;99036.09;5153048;27;20134;-77
2022/05/25 11:13:33;;;;;;;1.85;0.35;;;;;;;22.30;35.53;99050.72;5140120;27;20533;-76
2022/05/25 11:16:16;;;;;;;0.45;0.40;;;;;;;22.41;35.84;99041.41;5132272;27;20597;-77
2022/05/25 11:18:54;;;;;;;4.13;0.50;;;;;;;22.32;34.20;99037.47;5130993;27;20127;-77
2022/05/25 11:21:30;;;;;;;0.50;0.32;;;;;;;22.46;36.01;99040.59;5151393;27;20133;-77
2022/05/25 11:24:19;;;;;;;1.05;0.40;;;;;;;22.63;36.76;99057.91;5151983;27;20057;-77
2022/05/25 11:27:12;;;;;;;5.18;0.60;;;;;;;22.10;35.16;99043.91;5152462;27;20147;-76
2022/05/25 11:30:03;;;;;;;6.13;1.95;;;;;;;21.92;34.79;99033.25;5152634;27;20050;-77
2022/05/25 11:32:39;;;;;;;1.10;0.40;;;;;;;21.98;35.32;99034.09;5141619;27;20050;-77
2022/05/25 11:35:21;;;;;;;6.03;0.60;;;;;;;22.28;35.58;99039.91;5136074;27;20409;-77
2022/05/25 11:38:04;;;;;;;2.08;0.30;;;;;;;22.45;34.80;99036.19;5146668;27;20945;-77
2022/05/25 11:40:43;;;;;;;1.27;0.40;;;;;;;22.97;36.05;99038.16;5131209;27;20494;-78
2022/05/25 11:43:43;;;;;;;1.73;0.38;;;;;;;23.05;33.30;99034.03;5140820;27;20046;-79
2022/05/25 11:46:17;;;;;;;0.73;0.45;;;;;;;23.30;31.05;99040.81;5140504;27;20512;-78
2022/05/25 11:48:59;;;;;;;1.00;0.38;;;;;;;23.18;33.25;99037.44;5133526;27;20058;-78
2022/05/25 11:51:36;;;;;;;1.23;0.30;;;;;;;23.10;32.01;99014.66;5152258;27;20046;-78
2022/05/25 11:54:24;;;;;;;2.20;0.47;;;;;;;23.00;34.00;99044.25;5151845;27;20047;-78
2022/05/25 11:57:00;;;;;;;0.98;0.30;;;;;;;23.18;33.53;99042.97;5153114;27;20062;-79
2022/05/25 11:59:51;;;;;;;1.40;0.50;;;;;;;23.10;33.52;99038.78;5150877;27;20051;-78
2022/05/25 12:02:38;;;;;;;5.50;0.68;;;;;;;22.95;32.22;99051.44;5133771;27;20042;-78
2022/05/25 12:05:17;;;;;;;3.80;0.60;;;;;;;22.97;31.14;99051.16;5131239;28;20055;-75
2022/05/25 12:08:02;;;;;;;2.28;0.43;;;;;;;22.47;31.43;99042.28;5131196;28;20043;-76
2022/05/25 12:10:32;;;;;;;0.52;0.32;;;;;;;22.67;34.57;99049.88;5131127;28;20039;-76
2022/05/25 12:13:07;;;;;;;2.10;0.50;;;;;;;22.74;31.90;99039.41;5140137;27;20159;-76
2022/05/25 12:15:52;;;;;;;3.28;0.38;;;;;;;22.90;34.73;99047.78;5143105;27;20130;-76
2022/05/25 12:18:25;;;;;;;1.75;0.50;;;;;;;23.05;31.53;99013.78;5136718;27;20059;-76
2022/05/25 12:20:56;;;;;;;0.20;0.20;;;;;;;23.48;31.56;99042.25;5148110;27;20055;-76
2022/05/25 12:23:30;;;;;;;2.08;0.60;;;;;;;23.23;31.60;99016.09;5150928;27;20520;-77
2022/05/25 12:25:59;;;;;;;0.65;0.50;;;;;;;23.61;29.97;99036.19;5140994;27;20146;-78
2022/05/25 12:28:31;;;;;;;1.10;0.20;;;;;;;23.39;33.53;99013.38;5142440;27;20130;-77
2022/05/25 12:31:01;;;;;;;1.60;0.60;;;;;;;23.52;32.57;99035.06;5135088;27;20053;-77
2022/05/25 12:33:29;;;;;;;1.38;0.50;;;;;;;23.43;31.80;99042.25;5134545;27;20047;-77
2022/05/25 12:35:57;;;;;;;1.13;0.30;;;;;;;23.64;31.68;99037.59;5135249;27;20478;-77
2022/05/25 12:38:26;;;;;;;2.00;0.60;;;;;;;23.61;32.44;99013.16;5135110;27;20386;-78
2022/05/25 12:40:53;;;;;;;3.72;0.70;;;;;;;23.98;30.50;99029.63;5149151;27;20055;-78
2022/05/25 12:43:53;;;;;;;0.52;0.45;;;;;;;23.75;30.34;99043.97;5148652;27;20493;-77
2022/05/25 12:49:10;;;;;;;0.80;0.47;;;;;;;23.28;32.28;99024.44;5134873;27;20103;-78
2022/05/25 12:51:39;;;;;;;3.58;0.47;;;;;;;23.52;30.22;99018.41;5134869;27;20047;-78
2022/05/25 12:54:19;;;;;;;1.15;0.60;;;;;;;23.73;34.44;99005.41;5143555;27;20053;-78
2022/05/25 12:56:47;;;;;;;;;;;;;;;23.69;30.61;99030.09;5154552;27;20166;-78
2022/05/25 12:59:27;;;;;;;1.17;0.40;;;;;;;23.54;32.30;98998.72;5141914;27;19919;-78
2022/05/25 13:02:22;;;;;;;2.40;0.50;;;;;;;23.94;32.53;99009.06;5134094;27;20043;-78
2022/05/25 13:04:50;;;;;;;3.38;0.32;;;;;;;24.12;33.98;99001.31;5148591;27;20058;-78
2022/05/25 13:07:39;;;;;;;0.82;0.38;;;;;;;24.02;31.21;99014.03;5142742;27;20086;-78
2022/05/25 13:10:11;;;;;;;2.90;0.60;;;;;;;24.21;31.39;99017.09;5153651;27;20124;-77
2022/05/25 13:12:49;;;;;;;1.35;0.70;;;;;;;24.24;31.02;99025.97;5154143;27;20405;-78
2022/05/25 13:15:47;;;;;;;4.28;0.52;;;;;;;24.21;31.25;99022.66;5144790;27;20480;-79
2022/05/25 13:18:53;;;;;;;0.35;0.35;;;;;;;24.29;29.20;99023.22;5131563;27;20053;-78
2022/05/25 13:21:45;;;;;;;0.55;0.45;;;;;;;24.09;31.85;99011.00;5131714;27;20460;-77
2022/05/25 13:24:50;;;;;;;2.03;0.40;;;;;;;23.96;30.30;99015.16;5116401;27;20054;-79
2022/05/25 13:27:27;;;;;;;1.75;0.30;;;;;;;24.74;32.45;99005.66;5151687;27;20051;-79
2022/05/25 13:30:02;;;;;;;1.98;0.57;;;;;;;24.71;31.22;99020.13;5141402;27;20054;-79
2022/05/25 13:32:38;;;;;;;0.65;0.30;;;;;;;24.79;31.67;99003.97;5136371;27;20330;-79
2022/05/25 13:35:29;;;;;;;1.88;0.43;;;;;;;24.92;30.46;99020.88;5152636;27;20046;-79
2022/05/25 13:37:58;;;;;;;2.03;0.32;;;;;;;24.62;30.87;99002.34;5135118;27;20046;-79
2022/05/25 13:40:28;;;;;;;1.38;0.55;;;;;;;24.55;30.01;99005.41;5138086;27;20039;-79
2022/05/25 13:42:55;;;;;;;;;;;;;;;24.58;30.52;99025.41;5133370;27;20426;-78
2022/05/25 13:45:26;;;;;;;1.13;0.60;;;;;;;24.57;32.48;99019.03;5131705;27;19965;-78
2022/05/25 13:47:56;;;;;;;2.10;0.70;;;;;;;24.31;33.00;99018.22;5131354;27;20480;-79
2022/05/25 13:50:32;;;;;;;0.40;0.40;;;;;;;24.20;31.06;99000.72;5150325;27;20472;-79
2022/05/25 13:52:58;;;;;;;0.93;0.50;;;;;;;24.43;32.65;99004.03;5150821;27;20073;-78
2022/05/25 13:55:28;;;;;;;1.88;0.52;;;;;;;24.83;32.05;99013.44;5152213;27;20046;-79
2022/05/25 13:57:59;;;;;;;5.97;0.70;;;;;;;24.73;31.40;99025.41;5150910;27;20089;-79
2022/05/25 14:00:37;;;;;;;4.90;0.90;;;;;;;24.50;30.82;99035.97;5152316;27;20050;-79
2022/05/25 14:03:13;;;;;;;2.90;0.60;;;;;;;24.45;30.97;99019.31;5151333;27;20051;-79